sensor_id;sensor_type;location;lat;lon;timestamp;P1;durP1;ratioP1;P2;durP2;ratioP2
21352;SDS011;10834;52.268;6.770;2024-01-15T00:02:25;2.70;;;1.97;;
21352;SDS011;10834;52.268;6.770;2024-01-15T00:05:09;3.07;;;2.00;;
21352;SDS011;10834;52.268;6.770;2024-01-15T00:07:54;1.47;;;1.37;;
21352;SDS011;10834;52.268;6.770;2024-01-15T00:10:38;5.57;;;2.23;;
21352;SDS011;10834;52.268;6.770;2024-01-15T00:13:24;4.87;;;1.80;;
21352;SDS011;10834;52.268;6.770;2024-01-15T00:16:08;14.37;;;2.63;;
21352;SDS011;10834;52.268;6.770;2024-01-15T00:18:52;4.57;;;1.60;;
21352;SDS011;10834;52.268;6.770;2024-01-15T00:21:36;4.30;;;1.50;;
21352;SDS011;10834;52.268;6.770;2024-01-15T00:24:20;3.23;;;1.57;;
21352;SDS011;10834;52.268;6.770;2024-01-15T00:27:04;2.43;;;1.40;;
21352;SDS011;10834;52.268;6.770;2024-01-15T00:29:48;10.73;;;1.60;;
21352;SDS011;10834;52.268;6.770;2024-01-15T00:32:34;6.90;;;1.20;;
21352;SDS011;10834;52.268;6.770;2024-01-15T00:35:18;7.00;;;1.50;;
21352;SDS011;10834;52.268;6.770;2024-01-15T00:38:02;5.93;;;1.03;;
21352;SDS011;10834;52.268;6.770;2024-01-15T00:40:47;3.10;;;1.00;;
21352;SDS011;10834;52.268;6.770;2024-01-15T00:43:31;3.87;;;1.23;;
21352;SDS011;10834;52.268;6.770;2024-01-15T00:46:15;2.43;;;0.90;;
21352;SDS011;10834;52.268;6.770;2024-01-15T00:48:59;2.20;;;0.90;;
21352;SDS011;10834;52.268;6.770;2024-01-15T00:51:44;4.13;;;0.90;;
21352;SDS011;10834;52.268;6.770;2024-01-15T00:54:28;5.13;;;1.00;;
21352;SDS011;10834;52.268;6.770;2024-01-15T00:57:12;1.73;;;0.80;;
21352;SDS011;10834;52.268;6.770;2024-01-15T00:59:56;7.80;;;1.20;;
21352;SDS011;10834;52.268;6.770;2024-01-15T01:02:41;8.20;;;1.23;;
21352;SDS011;10834;52.268;6.770;2024-01-15T01:05:25;8.10;;;1.17;;
21352;SDS011;10834;52.268;6.770;2024-01-15T01:08:09;4.10;;;1.30;;
21352;SDS011;10834;52.268;6.770;2024-01-15T01:10:53;6.97;;;1.77;;
21352;SDS011;10834;52.268;6.770;2024-01-15T01:13:39;3.80;;;1.20;;
21352;SDS011;10834;52.268;6.770;2024-01-15T01:16:23;4.20;;;1.03;;
21352;SDS011;10834;52.268;6.770;2024-01-15T01:19:07;7.23;;;1.30;;
21352;SDS011;10834;52.268;6.770;2024-01-15T01:21:52;8.23;;;1.70;;
21352;SDS011;10834;52.268;6.770;2024-01-15T01:24:36;4.93;;;1.30;;
21352;SDS011;10834;52.268;6.770;2024-01-15T01:27:20;9.80;;;1.87;;
21352;SDS011;10834;52.268;6.770;2024-01-15T01:30:04;7.27;;;1.67;;
21352;SDS011;10834;52.268;6.770;2024-01-15T01:32:49;9.93;;;2.07;;
21352;SDS011;10834;52.268;6.770;2024-01-15T01:35:33;9.43;;;1.50;;
21352;SDS011;10834;52.268;6.770;2024-01-15T01:38:17;6.67;;;1.37;;
21352;SDS011;10834;52.268;6.770;2024-01-15T01:41:01;9.97;;;1.90;;
21352;SDS011;10834;52.268;6.770;2024-01-15T01:43:45;5.80;;;1.43;;
21352;SDS011;10834;52.268;6.770;2024-01-15T01:46:29;5.63;;;1.60;;
21352;SDS011;10834;52.268;6.770;2024-01-15T01:49:14;7.47;;;1.83;;
21352;SDS011;10834;52.268;6.770;2024-01-15T01:51:59;5.43;;;1.57;;
21352;SDS011;10834;52.268;6.770;2024-01-15T01:54:45;9.23;;;1.73;;
21352;SDS011;10834;52.268;6.770;2024-01-15T01:57:29;11.10;;;1.70;;
21352;SDS011;10834;52.268;6.770;2024-01-15T02:00:16;6.90;;;1.43;;
21352;SDS011;10834;52.268;6.770;2024-01-15T02:03:01;10.27;;;2.07;;
21352;SDS011;10834;52.268;6.770;2024-01-15T02:05:47;7.80;;;1.37;;
21352;SDS011;10834;52.268;6.770;2024-01-15T02:08:33;8.90;;;1.70;;
21352;SDS011;10834;52.268;6.770;2024-01-15T02:11:18;4.47;;;1.30;;
21352;SDS011;10834;52.268;6.770;2024-01-15T02:14:02;10.30;;;1.27;;
21352;SDS011;10834;52.268;6.770;2024-01-15T02:16:47;7.90;;;1.53;;
21352;SDS011;10834;52.268;6.770;2024-01-15T02:19:31;8.93;;;1.73;;
21352;SDS011;10834;52.268;6.770;2024-01-15T02:22:15;6.33;;;1.40;;
21352;SDS011;10834;52.268;6.770;2024-01-15T02:24:59;5.53;;;1.40;;
21352;SDS011;10834;52.268;6.770;2024-01-15T02:27:43;9.20;;;1.77;;
21352;SDS011;10834;52.268;6.770;2024-01-15T02:30:28;12.03;;;1.33;;
21352;SDS011;10834;52.268;6.770;2024-01-15T02:33:14;9.10;;;1.97;;
21352;SDS011;10834;52.268;6.770;2024-01-15T02:35:58;8.27;;;1.37;;
21352;SDS011;10834;52.268;6.770;2024-01-15T02:38:43;4.70;;;1.30;;
21352;SDS011;10834;52.268;6.770;2024-01-15T02:41:27;8.47;;;1.30;;
21352;SDS011;10834;52.268;6.770;2024-01-15T02:44:11;7.47;;;1.43;;
21352;SDS011;10834;52.268;6.770;2024-01-15T02:46:55;5.23;;;1.20;;
21352;SDS011;10834;52.268;6.770;2024-01-15T02:49:40;5.90;;;1.50;;
21352;SDS011;10834;52.268;6.770;2024-01-15T02:52:24;10.20;;;1.97;;
21352;SDS011;10834;52.268;6.770;2024-01-15T02:55:08;10.67;;;1.70;;
21352;SDS011;10834;52.268;6.770;2024-01-15T02:57:52;6.27;;;1.63;;
21352;SDS011;10834;52.268;6.770;2024-01-15T03:00:36;11.67;;;1.63;;
21352;SDS011;10834;52.268;6.770;2024-01-15T03:03:20;9.87;;;1.60;;
21352;SDS011;10834;52.268;6.770;2024-01-15T03:06:05;10.80;;;1.87;;
21352;SDS011;10834;52.268;6.770;2024-01-15T03:08:49;9.43;;;1.23;;
21352;SDS011;10834;52.268;6.770;2024-01-15T03:11:37;6.57;;;1.70;;
21352;SDS011;10834;52.268;6.770;2024-01-15T03:14:22;4.47;;;0.97;;
21352;SDS011;10834;52.268;6.770;2024-01-15T03:17:09;10.03;;;1.73;;
21352;SDS011;10834;52.268;6.770;2024-01-15T03:19:54;7.37;;;1.47;;
21352;SDS011;10834;52.268;6.770;2024-01-15T03:22:38;5.23;;;0.97;;
21352;SDS011;10834;52.268;6.770;2024-01-15T03:25:22;8.30;;;1.17;;
21352;SDS011;10834;52.268;6.770;2024-01-15T03:28:07;6.17;;;1.17;;
21352;SDS011;10834;52.268;6.770;2024-01-15T03:30:51;11.83;;;2.30;;
21352;SDS011;10834;52.268;6.770;2024-01-15T03:33:35;3.03;;;1.03;;
21352;SDS011;10834;52.268;6.770;2024-01-15T03:36:19;5.97;;;1.23;;
21352;SDS011;10834;52.268;6.770;2024-01-15T03:39:03;4.57;;;1.00;;
21352;SDS011;10834;52.268;6.770;2024-01-15T03:41:48;8.07;;;1.50;;
21352;SDS011;10834;52.268;6.770;2024-01-15T03:44:32;13.40;;;1.40;;
21352;SDS011;10834;52.268;6.770;2024-01-15T03:47:16;9.33;;;1.40;;
21352;SDS011;10834;52.268;6.770;2024-01-15T03:50:00;7.30;;;1.00;;
21352;SDS011;10834;52.268;6.770;2024-01-15T03:52:44;4.13;;;1.20;;
21352;SDS011;10834;52.268;6.770;2024-01-15T03:55:29;10.27;;;1.10;;
21352;SDS011;10834;52.268;6.770;2024-01-15T03:58:13;9.27;;;0.87;;
21352;SDS011;10834;52.268;6.770;2024-01-15T04:00:58;7.47;;;1.20;;
21352;SDS011;10834;52.268;6.770;2024-01-15T04:03:42;9.50;;;1.23;;
21352;SDS011;10834;52.268;6.770;2024-01-15T04:06:26;4.20;;;1.30;;
21352;SDS011;10834;52.268;6.770;2024-01-15T04:09:12;4.97;;;1.00;;
21352;SDS011;10834;52.268;6.770;2024-01-15T04:11:57;6.70;;;0.90;;
21352;SDS011;10834;52.268;6.770;2024-01-15T04:14:41;5.40;;;1.33;;
21352;SDS011;10834;52.268;6.770;2024-01-15T04:17:25;13.57;;;1.17;;
21352;SDS011;10834;52.268;6.770;2024-01-15T04:20:10;6.83;;;0.97;;
21352;SDS011;10834;52.268;6.770;2024-01-15T04:22:55;4.87;;;1.37;;
21352;SDS011;10834;52.268;6.770;2024-01-15T04:25:39;4.70;;;1.00;;
21352;SDS011;10834;52.268;6.770;2024-01-15T04:28:26;3.47;;;0.80;;
21352;SDS011;10834;52.268;6.770;2024-01-15T04:31:19;12.10;;;2.53;;
21352;SDS011;10834;52.268;6.770;2024-01-15T04:34:04;4.33;;;0.90;;
21352;SDS011;10834;52.268;6.770;2024-01-15T04:36:49;6.97;;;1.60;;
21352;SDS011;10834;52.268;6.770;2024-01-15T04:39:33;13.27;;;1.67;;
21352;SDS011;10834;52.268;6.770;2024-01-15T04:42:17;5.57;;;1.40;;
21352;SDS011;10834;52.268;6.770;2024-01-15T04:45:01;7.73;;;1.23;;
21352;SDS011;10834;52.268;6.770;2024-01-15T04:47:45;3.47;;;0.93;;
21352;SDS011;10834;52.268;6.770;2024-01-15T04:50:29;10.97;;;2.00;;
21352;SDS011;10834;52.268;6.770;2024-01-15T04:53:13;3.67;;;0.80;;
21352;SDS011;10834;52.268;6.770;2024-01-15T04:55:58;7.47;;;1.33;;
21352;SDS011;10834;52.268;6.770;2024-01-15T04:58:42;7.50;;;1.40;;
21352;SDS011;10834;52.268;6.770;2024-01-15T05:01:30;5.03;;;1.70;;
21352;SDS011;10834;52.268;6.770;2024-01-15T05:04:16;10.30;;;1.30;;
21352;SDS011;10834;52.268;6.770;2024-01-15T05:07:00;9.20;;;1.07;;
21352;SDS011;10834;52.268;6.770;2024-01-15T05:09:44;7.03;;;1.60;;
21352;SDS011;10834;52.268;6.770;2024-01-15T05:12:28;9.73;;;1.80;;
21352;SDS011;10834;52.268;6.770;2024-01-15T05:15:12;5.03;;;0.90;;
21352;SDS011;10834;52.268;6.770;2024-01-15T05:17:57;6.90;;;1.20;;
21352;SDS011;10834;52.268;6.770;2024-01-15T05:20:40;5.47;;;1.13;;
21352;SDS011;10834;52.268;6.770;2024-01-15T05:23:25;5.30;;;0.97;;
21352;SDS011;10834;52.268;6.770;2024-01-15T05:26:10;3.50;;;0.93;;
21352;SDS011;10834;52.268;6.770;2024-01-15T05:28:54;8.43;;;1.17;;
21352;SDS011;10834;52.268;6.770;2024-01-15T05:31:38;2.37;;;0.77;;
21352;SDS011;10834;52.268;6.770;2024-01-15T05:34:22;2.93;;;1.10;;
21352;SDS011;10834;52.268;6.770;2024-01-15T05:37:06;7.23;;;1.57;;
21352;SDS011;10834;52.268;6.770;2024-01-15T05:39:50;3.37;;;0.90;;
21352;SDS011;10834;52.268;6.770;2024-01-15T05:42:34;6.50;;;0.90;;
21352;SDS011;10834;52.268;6.770;2024-01-15T05:45:18;8.77;;;1.20;;
21352;SDS011;10834;52.268;6.770;2024-01-15T05:48:03;7.40;;;1.17;;
21352;SDS011;10834;52.268;6.770;2024-01-15T05:50:47;4.77;;;1.20;;
21352;SDS011;10834;52.268;6.770;2024-01-15T05:53:31;9.33;;;1.50;;
21352;SDS011;10834;52.268;6.770;2024-01-15T05:56:15;6.70;;;1.10;;
21352;SDS011;10834;52.268;6.770;2024-01-15T05:58:59;4.60;;;1.40;;
21352;SDS011;10834;52.268;6.770;2024-01-15T06:01:43;5.87;;;1.20;;
21352;SDS011;10834;52.268;6.770;2024-01-15T06:04:27;4.37;;;0.90;;
21352;SDS011;10834;52.268;6.770;2024-01-15T06:07:12;3.37;;;0.80;;
21352;SDS011;10834;52.268;6.770;2024-01-15T06:09:56;4.43;;;0.70;;
21352;SDS011;10834;52.268;6.770;2024-01-15T06:12:43;1.10;;;0.60;;
21352;SDS011;10834;52.268;6.770;2024-01-15T06:15:28;2.10;;;0.70;;
21352;SDS011;10834;52.268;6.770;2024-01-15T06:18:12;3.77;;;0.83;;
21352;SDS011;10834;52.268;6.770;2024-01-15T06:20:56;4.83;;;0.67;;
21352;SDS011;10834;52.268;6.770;2024-01-15T06:23:40;2.33;;;0.57;;
21352;SDS011;10834;52.268;6.770;2024-01-15T06:26:24;1.93;;;0.67;;
21352;SDS011;10834;52.268;6.770;2024-01-15T06:29:08;3.33;;;0.80;;
21352;SDS011;10834;52.268;6.770;2024-01-15T06:31:52;5.53;;;1.10;;
21352;SDS011;10834;52.268;6.770;2024-01-15T06:34:37;2.77;;;0.90;;
21352;SDS011;10834;52.268;6.770;2024-01-15T06:37:21;3.00;;;0.73;;
21352;SDS011;10834;52.268;6.770;2024-01-15T06:40:06;5.57;;;1.37;;
21352;SDS011;10834;52.268;6.770;2024-01-15T06:42:50;5.00;;;0.90;;
21352;SDS011;10834;52.268;6.770;2024-01-15T06:45:34;5.13;;;0.90;;
21352;SDS011;10834;52.268;6.770;2024-01-15T06:48:18;2.93;;;0.97;;
21352;SDS011;10834;52.268;6.770;2024-01-15T06:51:02;1.60;;;0.70;;
21352;SDS011;10834;52.268;6.770;2024-01-15T06:53:47;5.93;;;1.33;;
21352;SDS011;10834;52.268;6.770;2024-01-15T06:56:31;3.80;;;0.83;;
21352;SDS011;10834;52.268;6.770;2024-01-15T06:59:16;3.30;;;0.93;;
21352;SDS011;10834;52.268;6.770;2024-01-15T07:02:00;3.47;;;1.23;;
21352;SDS011;10834;52.268;6.770;2024-01-15T07:04:44;2.50;;;1.20;;
21352;SDS011;10834;52.268;6.770;2024-01-15T07:07:28;3.87;;;1.37;;
21352;SDS011;10834;52.268;6.770;2024-01-15T07:10:13;3.40;;;1.50;;
21352;SDS011;10834;52.268;6.770;2024-01-15T07:12:57;2.60;;;1.60;;
21352;SDS011;10834;52.268;6.770;2024-01-15T07:15:42;6.60;;;2.17;;
21352;SDS011;10834;52.268;6.770;2024-01-15T07:18:26;2.90;;;1.60;;
21352;SDS011;10834;52.268;6.770;2024-01-15T07:21:10;5.77;;;2.10;;
21352;SDS011;10834;52.268;6.770;2024-01-15T07:23:54;4.63;;;2.50;;
21352;SDS011;10834;52.268;6.770;2024-01-15T07:26:39;4.50;;;2.37;;
21352;SDS011;10834;52.268;6.770;2024-01-15T07:29:23;4.57;;;2.10;;
21352;SDS011;10834;52.268;6.770;2024-01-15T07:32:07;7.63;;;2.60;;
21352;SDS011;10834;52.268;6.770;2024-01-15T07:34:52;6.90;;;2.20;;
21352;SDS011;10834;52.268;6.770;2024-01-15T07:37:36;5.50;;;3.13;;
21352;SDS011;10834;52.268;6.770;2024-01-15T07:40:20;6.27;;;2.47;;
21352;SDS011;10834;52.268;6.770;2024-01-15T07:43:05;4.90;;;2.43;;
21352;SDS011;10834;52.268;6.770;2024-01-15T07:45:49;5.67;;;2.10;;
21352;SDS011;10834;52.268;6.770;2024-01-15T07:48:33;6.90;;;2.13;;
21352;SDS011;10834;52.268;6.770;2024-01-15T07:51:18;6.07;;;2.60;;
21352;SDS011;10834;52.268;6.770;2024-01-15T07:54:02;5.50;;;2.40;;
21352;SDS011;10834;52.268;6.770;2024-01-15T07:56:56;6.57;;;2.10;;
21352;SDS011;10834;52.268;6.770;2024-01-15T07:59:42;6.07;;;2.50;;
21352;SDS011;10834;52.268;6.770;2024-01-15T08:02:26;4.90;;;2.20;;
21352;SDS011;10834;52.268;6.770;2024-01-15T08:05:10;10.00;;;2.43;;
21352;SDS011;10834;52.268;6.770;2024-01-15T08:07:55;3.10;;;1.93;;
21352;SDS011;10834;52.268;6.770;2024-01-15T08:10:39;6.23;;;2.10;;
21352;SDS011;10834;52.268;6.770;2024-01-15T08:13:26;6.93;;;2.00;;
21352;SDS011;10834;52.268;6.770;2024-01-15T08:16:11;3.73;;;1.63;;
21352;SDS011;10834;52.268;6.770;2024-01-15T08:18:55;3.97;;;1.43;;
21352;SDS011;10834;52.268;6.770;2024-01-15T08:21:39;5.43;;;1.97;;
21352;SDS011;10834;52.268;6.770;2024-01-15T08:24:24;3.73;;;1.93;;
21352;SDS011;10834;52.268;6.770;2024-01-15T08:27:08;3.10;;;2.13;;
21352;SDS011;10834;52.268;6.770;2024-01-15T08:29:52;2.23;;;1.40;;
21352;SDS011;10834;52.268;6.770;2024-01-15T08:32:37;3.20;;;1.67;;
21352;SDS011;10834;52.268;6.770;2024-01-15T08:35:25;3.83;;;1.80;;
21352;SDS011;10834;52.268;6.770;2024-01-15T08:38:09;3.87;;;1.63;;
21352;SDS011;10834;52.268;6.770;2024-01-15T08:40:53;5.10;;;3.10;;
21352;SDS011;10834;52.268;6.770;2024-01-15T08:43:40;3.03;;;1.60;;
21352;SDS011;10834;52.268;6.770;2024-01-15T08:46:24;4.20;;;1.80;;
21352;SDS011;10834;52.268;6.770;2024-01-15T08:49:08;4.07;;;1.47;;
21352;SDS011;10834;52.268;6.770;2024-01-15T08:51:52;7.07;;;1.80;;
21352;SDS011;10834;52.268;6.770;2024-01-15T08:54:36;7.23;;;1.83;;
21352;SDS011;10834;52.268;6.770;2024-01-15T08:57:20;6.67;;;1.70;;
21352;SDS011;10834;52.268;6.770;2024-01-15T09:00:05;5.03;;;1.77;;
21352;SDS011;10834;52.268;6.770;2024-01-15T09:02:53;6.90;;;1.80;;
21352;SDS011;10834;52.268;6.770;2024-01-15T09:05:37;5.83;;;1.47;;
21352;SDS011;10834;52.268;6.770;2024-01-15T09:08:21;7.60;;;1.70;;
21352;SDS011;10834;52.268;6.770;2024-01-15T09:11:05;3.47;;;1.60;;
21352;SDS011;10834;52.268;6.770;2024-01-15T09:13:50;6.33;;;1.77;;
21352;SDS011;10834;52.268;6.770;2024-01-15T09:16:35;4.00;;;1.43;;
21352;SDS011;10834;52.268;6.770;2024-01-15T09:19:19;6.87;;;1.50;;
21352;SDS011;10834;52.268;6.770;2024-01-15T09:22:03;3.67;;;1.70;;
21352;SDS011;10834;52.268;6.770;2024-01-15T09:24:48;4.77;;;1.70;;
21352;SDS011;10834;52.268;6.770;2024-01-15T09:27:32;3.30;;;1.70;;
21352;SDS011;10834;52.268;6.770;2024-01-15T09:30:16;4.73;;;1.53;;
21352;SDS011;10834;52.268;6.770;2024-01-15T09:33:00;5.97;;;1.30;;
21352;SDS011;10834;52.268;6.770;2024-01-15T09:35:44;4.10;;;1.50;;
21352;SDS011;10834;52.268;6.770;2024-01-15T09:38:28;7.40;;;1.57;;
21352;SDS011;10834;52.268;6.770;2024-01-15T09:41:12;3.90;;;1.60;;
21352;SDS011;10834;52.268;6.770;2024-01-15T09:43:56;6.63;;;1.77;;
21352;SDS011;10834;52.268;6.770;2024-01-15T09:46:40;2.20;;;1.30;;
21352;SDS011;10834;52.268;6.770;2024-01-15T09:49:26;3.00;;;1.73;;
21352;SDS011;10834;52.268;6.770;2024-01-15T09:52:11;5.30;;;1.77;;
21352;SDS011;10834;52.268;6.770;2024-01-15T09:54:56;5.20;;;2.13;;
21352;SDS011;10834;52.268;6.770;2024-01-15T09:57:42;6.20;;;1.50;;
21352;SDS011;10834;52.268;6.770;2024-01-15T10:00:28;6.77;;;1.97;;
21352;SDS011;10834;52.268;6.770;2024-01-15T10:03:15;3.57;;;1.57;;
21352;SDS011;10834;52.268;6.770;2024-01-15T10:05:59;3.97;;;2.03;;
21352;SDS011;10834;52.268;6.770;2024-01-15T10:08:47;3.57;;;1.67;;
21352;SDS011;10834;52.268;6.770;2024-01-15T10:11:32;4.43;;;1.90;;
21352;SDS011;10834;52.268;6.770;2024-01-15T10:14:16;3.87;;;1.77;;
21352;SDS011;10834;52.268;6.770;2024-01-15T10:17:03;7.00;;;1.73;;
21352;SDS011;10834;52.268;6.770;2024-01-15T10:19:57;2.53;;;1.40;;
21352;SDS011;10834;52.268;6.770;2024-01-15T10:22:41;3.37;;;1.33;;
21352;SDS011;10834;52.268;6.770;2024-01-15T10:25:30;4.60;;;1.90;;
21352;SDS011;10834;52.268;6.770;2024-01-15T10:28:14;2.43;;;1.43;;
21352;SDS011;10834;52.268;6.770;2024-01-15T10:30:59;5.43;;;1.80;;
21352;SDS011;10834;52.268;6.770;2024-01-15T10:33:44;8.47;;;2.03;;
21352;SDS011;10834;52.268;6.770;2024-01-15T10:36:28;4.57;;;1.77;;
21352;SDS011;10834;52.268;6.770;2024-01-15T10:39:13;4.67;;;2.13;;
21352;SDS011;10834;52.268;6.770;2024-01-15T10:41:57;4.33;;;1.57;;
21352;SDS011;10834;52.268;6.770;2024-01-15T10:44:42;2.20;;;1.63;;
21352;SDS011;10834;52.268;6.770;2024-01-15T10:47:27;3.30;;;1.63;;
21352;SDS011;10834;52.268;6.770;2024-01-15T10:50:12;7.40;;;2.00;;
21352;SDS011;10834;52.268;6.770;2024-01-15T10:52:56;7.43;;;2.27;;
21352;SDS011;10834;52.268;6.770;2024-01-15T10:55:42;4.97;;;1.90;;
21352;SDS011;10834;52.268;6.770;2024-01-15T10:58:27;2.50;;;1.70;;
21352;SDS011;10834;52.268;6.770;2024-01-15T11:01:15;7.57;;;2.03;;
21352;SDS011;10834;52.268;6.770;2024-01-15T11:04:00;7.67;;;2.10;;
21352;SDS011;10834;52.268;6.770;2024-01-15T11:06:45;3.03;;;2.67;;
21352;SDS011;10834;52.268;6.770;2024-01-15T11:09:32;2.63;;;1.33;;
21352;SDS011;10834;52.268;6.770;2024-01-15T11:12:16;4.57;;;1.70;;
21352;SDS011;10834;52.268;6.770;2024-01-15T11:15:02;7.60;;;2.20;;
21352;SDS011;10834;52.268;6.770;2024-01-15T11:17:59;5.77;;;2.30;;
21352;SDS011;10834;52.268;6.770;2024-01-15T11:21:19;3.27;;;1.53;;
21352;SDS011;10834;52.268;6.770;2024-01-15T11:24:01;4.77;;;1.57;;
21352;SDS011;10834;52.268;6.770;2024-01-15T11:26:49;7.10;;;2.03;;
21352;SDS011;10834;52.268;6.770;2024-01-15T11:29:34;3.40;;;1.50;;
21352;SDS011;10834;52.268;6.770;2024-01-15T11:32:21;3.30;;;1.30;;
21352;SDS011;10834;52.268;6.770;2024-01-15T11:35:17;8.33;;;1.73;;
21352;SDS011;10834;52.268;6.770;2024-01-15T11:38:02;7.67;;;1.03;;
21352;SDS011;10834;52.268;6.770;2024-01-15T11:40:47;4.70;;;1.00;;
21352;SDS011;10834;52.268;6.770;2024-01-15T11:43:33;3.80;;;1.00;;
21352;SDS011;10834;52.268;6.770;2024-01-15T11:46:18;5.10;;;1.10;;
21352;SDS011;10834;52.268;6.770;2024-01-15T11:49:03;6.03;;;1.10;;
21352;SDS011;10834;52.268;6.770;2024-01-15T11:51:49;5.90;;;1.20;;
21352;SDS011;10834;52.268;6.770;2024-01-15T11:54:34;1.80;;;0.70;;
21352;SDS011;10834;52.268;6.770;2024-01-15T11:57:41;6.00;;;1.50;;
21352;SDS011;10834;52.268;6.770;2024-01-15T12:00:30;4.87;;;1.10;;
21352;SDS011;10834;52.268;6.770;2024-01-15T12:03:14;4.27;;;1.47;;
21352;SDS011;10834;52.268;6.770;2024-01-15T12:05:58;4.37;;;1.37;;
21352;SDS011;10834;52.268;6.770;2024-01-15T12:08:43;4.83;;;1.93;;
21352;SDS011;10834;52.268;6.770;2024-01-15T12:11:27;4.67;;;1.50;;
21352;SDS011;10834;52.268;6.770;2024-01-15T12:14:13;3.87;;;1.20;;
21352;SDS011;10834;52.268;6.770;2024-01-15T12:16:58;7.70;;;1.27;;
21352;SDS011;10834;52.268;6.770;2024-01-15T12:19:43;2.13;;;1.13;;
21352;SDS011;10834;52.268;6.770;2024-01-15T12:22:27;4.80;;;1.30;;
21352;SDS011;10834;52.268;6.770;2024-01-15T12:25:11;2.60;;;1.20;;
21352;SDS011;10834;52.268;6.770;2024-01-15T12:27:56;5.27;;;1.20;;
21352;SDS011;10834;52.268;6.770;2024-01-15T12:30:40;5.20;;;1.10;;
21352;SDS011;10834;52.268;6.770;2024-01-15T12:33:25;3.70;;;0.83;;
21352;SDS011;10834;52.268;6.770;2024-01-15T12:36:09;4.63;;;1.10;;
21352;SDS011;10834;52.268;6.770;2024-01-15T12:38:59;2.97;;;0.80;;
21352;SDS011;10834;52.268;6.770;2024-01-15T12:41:44;4.93;;;0.73;;
21352;SDS011;10834;52.268;6.770;2024-01-15T12:44:29;4.73;;;0.80;;
21352;SDS011;10834;52.268;6.770;2024-01-15T12:47:13;3.43;;;0.97;;
21352;SDS011;10834;52.268;6.770;2024-01-15T12:50:00;3.60;;;0.43;;
21352;SDS011;10834;52.268;6.770;2024-01-15T12:52:44;6.70;;;0.70;;
21352;SDS011;10834;52.268;6.770;2024-01-15T12:55:29;2.93;;;0.70;;
21352;SDS011;10834;52.268;6.770;2024-01-15T12:58:13;4.57;;;1.07;;
21352;SDS011;10834;52.268;6.770;2024-01-15T13:00:58;1.80;;;0.50;;
21352;SDS011;10834;52.268;6.770;2024-01-15T13:03:42;2.70;;;0.67;;
21352;SDS011;10834;52.268;6.770;2024-01-15T13:06:26;3.23;;;0.80;;
21352;SDS011;10834;52.268;6.770;2024-01-15T13:09:10;3.40;;;0.50;;
21352;SDS011;10834;52.268;6.770;2024-01-15T13:11:54;3.63;;;0.80;;
21352;SDS011;10834;52.268;6.770;2024-01-15T13:14:38;4.47;;;1.00;;
21352;SDS011;10834;52.268;6.770;2024-01-15T13:17:22;1.77;;;0.70;;
21352;SDS011;10834;52.268;6.770;2024-01-15T13:20:07;7.43;;;1.10;;
21352;SDS011;10834;52.268;6.770;2024-01-15T13:22:52;3.40;;;0.70;;
21352;SDS011;10834;52.268;6.770;2024-01-15T13:25:36;3.97;;;0.77;;
21352;SDS011;10834;52.268;6.770;2024-01-15T13:28:22;3.67;;;1.27;;
21352;SDS011;10834;52.268;6.770;2024-01-15T13:31:06;2.77;;;0.63;;
21352;SDS011;10834;52.268;6.770;2024-01-15T13:33:50;1.37;;;0.67;;
21352;SDS011;10834;52.268;6.770;2024-01-15T13:36:34;7.43;;;1.00;;
21352;SDS011;10834;52.268;6.770;2024-01-15T13:39:18;2.97;;;0.87;;
21352;SDS011;10834;52.268;6.770;2024-01-15T13:42:04;2.27;;;0.77;;
21352;SDS011;10834;52.268;6.770;2024-01-15T13:44:48;1.93;;;0.90;;
21352;SDS011;10834;52.268;6.770;2024-01-15T13:47:32;2.38;;;1.00;;
21352;SDS011;10834;52.268;6.770;2024-01-15T13:50:16;2.63;;;0.70;;
21352;SDS011;10834;52.268;6.770;2024-01-15T13:53:01;4.10;;;1.17;;
21352;SDS011;10834;52.268;6.770;2024-01-15T13:55:47;2.73;;;0.70;;
21352;SDS011;10834;52.268;6.770;2024-01-15T13:58:31;2.77;;;0.57;;
21352;SDS011;10834;52.268;6.770;2024-01-15T14:01:16;3.77;;;1.00;;
21352;SDS011;10834;52.268;6.770;2024-01-15T14:04:03;6.10;;;0.70;;
21352;SDS011;10834;52.268;6.770;2024-01-15T14:06:47;5.50;;;0.93;;
21352;SDS011;10834;52.268;6.770;2024-01-15T14:09:31;2.30;;;0.80;;
21352;SDS011;10834;52.268;6.770;2024-01-15T14:12:16;1.73;;;0.60;;
21352;SDS011;10834;52.268;6.770;2024-01-15T14:15:00;2.37;;;0.50;;
21352;SDS011;10834;52.268;6.770;2024-01-15T14:17:46;0.30;;;0.30;;
21352;SDS011;10834;52.268;6.770;2024-01-15T14:20:30;4.00;;;1.10;;
21352;SDS011;10834;52.268;6.770;2024-01-15T14:23:14;2.90;;;1.10;;
21352;SDS011;10834;52.268;6.770;2024-01-15T14:25:58;1.40;;;0.80;;
21352;SDS011;10834;52.268;6.770;2024-01-15T14:28:42;2.10;;;0.67;;
21352;SDS011;10834;52.268;6.770;2024-01-15T14:31:27;2.00;;;0.80;;
21352;SDS011;10834;52.268;6.770;2024-01-15T14:34:11;3.37;;;0.63;;
21352;SDS011;10834;52.268;6.770;2024-01-15T14:36:55;3.23;;;0.90;;
21352;SDS011;10834;52.268;6.770;2024-01-15T14:39:40;4.73;;;0.70;;
21352;SDS011;10834;52.268;6.770;2024-01-15T14:42:24;4.30;;;0.63;;
21352;SDS011;10834;52.268;6.770;2024-01-15T14:45:09;4.27;;;1.10;;
21352;SDS011;10834;52.268;6.770;2024-01-15T14:47:55;10.57;;;1.73;;
21352;SDS011;10834;52.268;6.770;2024-01-15T14:50:40;4.20;;;1.20;;
21352;SDS011;10834;52.268;6.770;2024-01-15T14:53:24;9.03;;;1.20;;
21352;SDS011;10834;52.268;6.770;2024-01-15T14:56:08;6.20;;;1.00;;
21352;SDS011;10834;52.268;6.770;2024-01-15T14:58:52;5.93;;;1.40;;
21352;SDS011;10834;52.268;6.770;2024-01-15T15:01:36;9.37;;;1.47;;
21352;SDS011;10834;52.268;6.770;2024-01-15T15:04:20;5.87;;;1.40;;
21352;SDS011;10834;52.268;6.770;2024-01-15T15:07:04;6.57;;;1.57;;
21352;SDS011;10834;52.268;6.770;2024-01-15T15:09:50;5.43;;;1.40;;
21352;SDS011;10834;52.268;6.770;2024-01-15T15:12:37;11.33;;;1.50;;
21352;SDS011;10834;52.268;6.770;2024-01-15T15:15:21;5.43;;;1.07;;
21352;SDS011;10834;52.268;6.770;2024-01-15T15:18:05;9.80;;;1.47;;
21352;SDS011;10834;52.268;6.770;2024-01-15T15:20:49;6.13;;;1.30;;
21352;SDS011;10834;52.268;6.770;2024-01-15T15:23:34;2.37;;;1.03;;
21352;SDS011;10834;52.268;6.770;2024-01-15T15:26:18;6.67;;;1.30;;
21352;SDS011;10834;52.268;6.770;2024-01-15T15:29:02;7.23;;;1.27;;
21352;SDS011;10834;52.268;6.770;2024-01-15T15:31:46;6.97;;;1.40;;
21352;SDS011;10834;52.268;6.770;2024-01-15T15:34:32;4.57;;;1.07;;
21352;SDS011;10834;52.268;6.770;2024-01-15T15:37:16;4.73;;;1.03;;
21352;SDS011;10834;52.268;6.770;2024-01-15T15:40:01;6.37;;;1.27;;
21352;SDS011;10834;52.268;6.770;2024-01-15T15:42:45;10.60;;;1.40;;
21352;SDS011;10834;52.268;6.770;2024-01-15T15:45:30;5.83;;;1.07;;
21352;SDS011;10834;52.268;6.770;2024-01-15T15:48:15;7.67;;;1.23;;
21352;SDS011;10834;52.268;6.770;2024-01-15T15:50:59;5.20;;;1.83;;
21352;SDS011;10834;52.268;6.770;2024-01-15T15:53:43;6.47;;;2.20;;
21352;SDS011;10834;52.268;6.770;2024-01-15T15:56:27;8.70;;;1.50;;
21352;SDS011;10834;52.268;6.770;2024-01-15T15:59:12;7.47;;;2.17;;
21352;SDS011;10834;52.268;6.770;2024-01-15T16:01:56;12.27;;;1.87;;
21352;SDS011;10834;52.268;6.770;2024-01-15T16:04:41;3.67;;;1.10;;
21352;SDS011;10834;52.268;6.770;2024-01-15T16:07:26;6.00;;;1.70;;
21352;SDS011;10834;52.268;6.770;2024-01-15T16:10:12;4.93;;;1.13;;
21352;SDS011;10834;52.268;6.770;2024-01-15T16:12:56;5.13;;;1.20;;
21352;SDS011;10834;52.268;6.770;2024-01-15T16:15:40;4.73;;;1.70;;
21352;SDS011;10834;52.268;6.770;2024-01-15T16:18:24;6.13;;;2.17;;
21352;SDS011;10834;52.268;6.770;2024-01-15T16:21:08;9.53;;;1.93;;
21352;SDS011;10834;52.268;6.770;2024-01-15T16:23:52;8.33;;;2.73;;
21352;SDS011;10834;52.268;6.770;2024-01-15T16:26:37;16.77;;;6.33;;
21352;SDS011;10834;52.268;6.770;2024-01-15T16:29:21;5.87;;;2.77;;
21352;SDS011;10834;52.268;6.770;2024-01-15T16:32:05;13.00;;;2.23;;